Time;durP1;ratioP1;P1;durP2;ratioP2;P2;SDS_P1;SDS_P2;PMS_P1;PMS_P2;Temp;Humidity;BMP_temperature;BMP_pressure;BME280_temperature;BME280_humidity;BME280_pressure;Samples;Min_cycle;Max_cycle;Signal;HPM_P1;HPM_P2
2024/04/10 00:00:24;;;;;;;2.10;1.00;;;15.20;90.10;;;;;;5413873;26;20031;-65
2024/04/10 00:03:16;;;;;;;3.80;1.30;;;15.10;90.30;;;;;;5400567;26;20019;-65
2024/04/10 00:06:07;;;;;;;5.55;1.17;;;15.00;90.60;;;;;;5416585;26;19995;-65
2024/04/10 00:08:53;;;;;;;3.38;1.30;;;15.00;90.70;;;;;;5411276;26;20439;-65
2024/04/10 00:11:39;;;;;;;2.97;1.13;;;14.90;90.90;;;;;;5400893;26;20439;-65
2024/04/10 00:14:25;;;;;;;4.80;1.40;;;14.90;91.00;;;;;;5410783;26;20004;-65
2024/04/10 00:17:11;;;;;;;3.70;1.38;;;14.90;91.20;;;;;;5410842;26;20023;-65
2024/04/10 00:19:57;;;;;;;3.22;1.63;;;14.90;91.30;;;;;;5414866;26;20007;-66
2024/04/10 00:22:42;;;;;;;5.38;1.90;;;14.90;91.50;;;;;;5410397;26;20024;-66
2024/04/10 00:25:28;;;;;;;3.45;1.40;;;14.90;91.60;;;;;;5401652;26;20011;-66
2024/04/10 00:28:14;;;;;;;4.00;1.52;;;14.80;91.80;;;;;;5402879;26;19996;-65
2024/04/10 00:31:04;;;;;;;2.33;1.10;;;14.80;91.90;;;;;;5416745;26;20467;-65
2024/04/10 00:33:50;;;;;;;2.90;1.30;;;14.70;92.20;;;;;;5411774;26;20010;-65
2024/04/10 00:36:36;;;;;;;3.20;1.30;;;14.70;92.30;;;;;;5366921;26;20003;-66
2024/04/10 00:39:21;;;;;;;2.00;1.20;;;14.70;92.50;;;;;;5401434;26;20007;-65
2024/04/10 00:42:08;;;;;;;4.15;1.77;;;14.60;92.60;;;;;;5415361;26;19999;-65
2024/04/10 00:44:55;;;;;;;3.88;1.60;;;14.60;92.80;;;;;;5411391;26;19995;-66
2024/04/10 00:47:41;;;;;;;2.75;1.38;;;14.60;92.80;;;;;;5397842;26;20031;-66
2024/04/10 00:50:27;;;;;;;2.55;1.15;;;14.60;92.90;;;;;;5400992;26;20003;-66
2024/04/10 00:53:13;;;;;;;3.78;1.30;;;14.70;92.90;;;;;;5412819;26;20014;-66
2024/04/10 00:55:59;;;;;;;3.63;1.30;;;14.60;93.00;;;;;;5413301;26;20000;-64
2024/04/10 00:58:47;;;;;;;3.00;1.45;;;14.60;93.00;;;;;;5408188;26;20027;-65
2024/04/10 01:01:33;;;;;;;4.28;1.60;;;14.50;93.10;;;;;;5385155;26;19995;-65
2024/04/10 01:04:19;;;;;;;3.45;1.73;;;14.50;93.20;;;;;;5414333;26;20036;-65
2024/04/10 01:07:09;;;;;;;4.10;1.38;;;14.50;93.20;;;;;;5409858;26;19999;-66
2024/04/10 01:09:55;;;;;;;2.53;1.30;;;14.50;93.30;;;;;;5414734;26;20003;-65
2024/04/10 01:12:43;;;;;;;3.83;1.55;;;14.50;93.30;;;;;;5397756;26;20001;-65
2024/04/10 01:15:29;;;;;;;5.07;1.98;;;14.50;93.40;;;;;;5410346;26;20014;-66
2024/04/10 01:18:15;;;;;;;2.25;1.33;;;14.50;93.40;;;;;;5410050;26;20003;-66
2024/04/10 01:21:01;;;;;;;4.55;1.40;;;14.50;93.40;;;;;;5399709;26;20357;-66
2024/04/10 01:23:47;;;;;;;5.18;1.70;;;14.50;93.40;;;;;;5414453;26;20004;-65
2024/04/10 01:26:33;;;;;;;5.22;1.38;;;14.40;93.40;;;;;;5414289;26;20010;-65
2024/04/10 01:29:19;;;;;;;2.75;1.45;;;14.40;93.50;;;;;;5409461;26;19991;-64
2024/04/10 01:32:05;;;;;;;5.50;1.20;;;14.40;93.50;;;;;;5411636;26;20389;-64
2024/04/10 01:34:51;;;;;;;7.13;1.60;;;14.40;93.50;;;;;;5409168;26;20004;-65
2024/04/10 01:37:37;;;;;;;4.53;1.60;;;14.40;93.50;;;;;;5411232;26;20087;-64
2024/04/10 01:40:23;;;;;;;1.98;1.13;;;14.50;93.60;;;;;;5409292;26;20432;-64
2024/04/10 01:43:09;;;;;;;3.03;1.38;;;14.40;93.60;;;;;;5401903;26;20426;-64
2024/04/10 01:45:55;;;;;;;4.53;1.80;;;14.40;93.60;;;;;;5392254;26;20094;-64
2024/04/10 01:48:41;;;;;;;2.42;1.10;;;14.50;93.60;;;;;;5408564;26;20084;-64
2024/04/10 01:51:27;;;;;;;4.05;1.33;;;14.40;93.50;;;;;;5410987;26;20324;-64
2024/04/10 01:54:13;;;;;;;3.55;1.75;;;14.40;93.60;;;;;;5395949;26;20007;-64
2024/04/10 01:56:59;;;;;;;5.68;1.23;;;14.40;93.60;;;;;;5399614;26;20012;-64
2024/04/10 01:59:45;;;;;;;3.00;1.40;;;14.40;93.60;;;;;;5400444;26;20076;-64
2024/04/10 02:02:31;;;;;;;1.98;1.27;;;14.50;93.70;;;;;;5403026;26;20099;-64
2024/04/10 02:05:17;;;;;;;3.17;1.40;;;14.50;93.60;;;;;;5414061;26;20007;-65
2024/04/10 02:08:03;;;;;;;4.15;1.40;;;14.50;93.50;;;;;;5416099;26;20477;-71
2024/04/10 02:10:49;;;;;;;2.30;1.40;;;14.50;93.50;;;;;;5412295;26;20043;-71
2024/04/10 02:13:35;;;;;;;3.15;1.30;;;14.50;93.50;;;;;;5407009;26;19996;-72
2024/04/10 02:16:24;;;;;;;2.90;1.38;;;14.50;93.70;;;;;;5411008;26;20460;-72
2024/04/10 02:19:10;;;;;;;4.03;1.50;;;14.50;93.40;;;;;;5410794;26;19999;-64
2024/04/10 02:21:57;;;;;;;2.05;1.23;;;14.50;93.40;;;;;;5409386;26;19999;-65
2024/04/10 02:24:44;;;;;;;5.03;1.00;;;14.50;93.30;;;;;;5407670;26;20006;-65
2024/04/10 02:27:30;;;;;;;2.70;1.38;;;14.50;93.20;;;;;;5409889;26;19999;-64
2024/04/10 02:30:16;;;;;;;3.22;1.13;;;14.50;93.10;;;;;;5401572;26;20018;-64
2024/04/10 02:33:02;;;;;;;3.95;2.15;;;14.50;93.00;;;;;;5411482;26;20014;-65
2024/04/10 02:35:48;;;;;;;4.15;1.10;;;14.50;92.80;;;;;;5375321;26;20032;-69
2024/04/10 02:38:35;;;;;;;4.18;1.40;;;14.50;92.60;;;;;;5403774;26;19999;-70
2024/04/10 02:41:21;;;;;;;3.78;1.15;;;14.60;92.40;;;;;;5410764;26;19992;-70
2024/04/10 02:44:07;;;;;;;3.78;1.40;;;14.60;92.20;;;;;;5384865;26;20425;-70
2024/04/10 02:46:55;;;;;;;3.45;1.40;;;14.60;91.90;;;;;;5405607;26;20007;-70
2024/04/10 02:49:41;;;;;;;2.85;1.17;;;14.60;91.60;;;;;;5381450;26;20065;-71
2024/04/10 02:52:27;;;;;;;2.80;1.25;;;14.60;91.30;;;;;;5379381;26;19996;-71
2024/04/10 02:55:13;;;;;;;2.40;1.17;;;14.60;91.20;;;;;;5413079;26;19999;-71
2024/04/10 02:57:59;;;;;;;3.28;1.45;;;14.60;91.00;;;;;;5414307;26;20000;-70
2024/04/10 03:00:53;;;;;;;3.03;1.00;;;14.60;90.80;;;;;;5415817;26;20364;-71
2024/04/10 03:03:39;;;;;;;3.72;1.08;;;14.60;90.60;;;;;;5414709;26;20014;-72
2024/04/10 03:06:26;;;;;;;2.17;1.20;;;14.60;90.50;;;;;;5417100;26;19992;-70
2024/04/10 03:09:14;;;;;;;3.65;1.13;;;14.70;90.40;;;;;;5407778;26;20405;-70
2024/04/10 03:12:00;;;;;;;4.90;1.40;;;14.60;90.30;;;;;;5405411;26;20012;-70
2024/04/10 03:14:46;;;;;;;2.42;1.20;;;14.60;90.20;;;;;;5404437;26;20323;-70
2024/04/10 03:17:32;;;;;;;2.35;1.42;;;14.60;90.10;;;;;;5396899;26;20000;-69
2024/04/10 03:20:18;;;;;;;3.13;1.50;;;14.60;90.00;;;;;;5410410;26;20093;-70
2024/04/10 03:23:04;;;;;;;1.48;1.10;;;14.60;89.80;;;;;;5412129;26;20447;-70
2024/04/10 03:26:03;;;;;;;3.65;1.35;;;14.60;89.60;;;;;;5398399;26;20014;-70
2024/04/10 03:28:49;;;;;;;2.47;1.42;;;14.60;89.40;;;;;;5410852;26;20014;-70
2024/04/10 03:31:35;;;;;;;4.97;1.75;;;14.60;89.20;;;;;;5415591;26;19998;-69
2024/04/10 03:34:21;;;;;;;3.88;1.40;;;14.60;89.00;;;;;;5405960;26;20412;-69
2024/04/10 03:37:08;;;;;;;3.47;1.75;;;14.60;88.70;;;;;;5406500;26;19995;-69
2024/04/10 03:39:54;;;;;;;2.97;1.23;;;14.60;88.60;;;;;;5393687;26;19995;-69
2024/04/10 03:42:40;;;;;;;4.75;1.48;;;14.60;88.20;;;;;;5388061;26;20024;-69
2024/04/10 03:45:26;;;;;;;4.95;1.23;;;14.60;88.10;;;;;;5412585;26;20011;-70
2024/04/10 03:48:12;;;;;;;6.68;1.55;;;14.60;88.00;;;;;;5392051;26;20394;-69
2024/04/10 03:51:00;;;;;;;2.88;1.52;;;14.60;87.90;;;;;;5415184;26;20007;-69
2024/04/10 03:53:47;;;;;;;4.15;1.20;;;14.60;87.70;;;;;;5392463;26;20450;-69
2024/04/10 03:56:33;;;;;;;3.80;1.98;;;14.50;87.40;;;;;;5411828;26;19996;-69
2024/04/10 03:59:19;;;;;;;2.33;1.30;;;14.50;87.20;;;;;;5385744;26;19999;-69
2024/04/10 04:02:05;;;;;;;2.60;1.40;;;14.50;87.10;;;;;;5405625;26;20035;-69
2024/04/10 04:04:51;;;;;;;3.28;1.42;;;14.50;87.10;;;;;;5414900;26;20007;-69
2024/04/10 04:07:36;;;;;;;4.03;1.80;;;14.50;86.90;;;;;;5379873;26;20402;-69
2024/04/10 04:10:22;;;;;;;4.10;1.50;;;14.50;87.10;;;;;;5390631;26;20003;-67
2024/04/10 04:13:10;;;;;;;4.32;1.77;;;14.40;86.70;;;;;;5416192;26;20006;-67
2024/04/10 04:15:56;;;;;;;3.15;1.33;;;14.50;87.00;;;;;;5387963;26;19999;-69
2024/04/10 04:18:42;;;;;;;2.25;1.20;;;14.50;86.70;;;;;;5403956;26;20010;-67
2024/04/10 04:21:28;;;;;;;2.08;1.40;;;14.40;86.60;;;;;;5405259;26;20028;-71
2024/04/10 04:24:14;;;;;;;3.08;2.00;;;14.40;86.50;;;;;;5411053;26;20007;-71
2024/04/10 04:27:00;;;;;;;3.65;1.58;;;14.40;86.40;;;;;;5410527;26;20035;-70
2024/04/10 04:29:46;;;;;;;4.20;1.60;;;14.50;86.50;;;;;;5414591;26;20015;-68
2024/04/10 04:32:32;;;;;;;4.45;1.63;;;14.40;86.40;;;;;;5413077;26;20018;-65
2024/04/10 04:35:18;;;;;;;2.70;1.40;;;14.50;86.40;;;;;;5398974;26;20410;-65
2024/04/10 04:38:04;;;;;;;3.50;1.60;;;14.40;86.30;;;;;;5398260;26;20625;-67
2024/04/10 04:40:50;;;;;;;4.05;2.10;;;14.50;86.40;;;;;;5415111;26;19987;-65
2024/04/10 04:43:36;;;;;;;3.38;1.50;;;14.40;86.30;;;;;;5407905;26;20035;-67
2024/04/10 04:46:24;;;;;;;3.30;1.88;;;14.40;86.20;;;;;;5405227;26;20014;-68
2024/04/10 04:49:10;;;;;;;4.00;1.85;;;14.50;86.40;;;;;;5406500;26;19999;-67
2024/04/10 04:51:56;;;;;;;3.13;1.98;;;14.50;86.40;;;;;;5399845;26;19999;-65
2024/04/10 04:54:42;;;;;;;2.97;1.75;;;14.50;86.50;;;;;;5392011;26;20004;-67
2024/04/10 04:57:27;;;;;;;4.28;1.58;;;14.50;86.40;;;;;;5400887;26;20015;-67
2024/04/10 05:00:14;;;;;;;6.57;2.22;;;14.50;86.40;;;;;;5398343;26;19999;-67
2024/04/10 05:03:01;;;;;;;6.57;2.70;;;14.50;86.50;;;;;;5413765;26;20075;-67
2024/04/10 05:05:47;;;;;;;2.78;1.55;;;14.50;86.60;;;;;;5412180;26;19999;-67
2024/04/10 05:08:33;;;;;;;3.38;1.42;;;14.60;87.10;;;;;;5414935;26;20003;-67
2024/04/10 05:11:21;;;;;;;5.32;1.95;;;14.60;86.80;;;;;;5403912;26;19996;-67
2024/04/10 05:14:06;;;;;;;5.95;2.03;;;14.60;86.70;;;;;;5416795;26;19996;-67
2024/04/10 05:16:52;;;;;;;5.25;2.03;;;14.70;86.50;;;;;;5413600;26;20320;-68
2024/04/10 05:19:38;;;;;;;3.80;1.50;;;14.60;86.50;;;;;;5415558;26;20325;-68
2024/04/10 05:22:24;;;;;;;6.55;1.52;;;14.70;86.40;;;;;;5410228;26;20010;-67
2024/04/10 05:25:11;;;;;;;3.03;1.30;;;14.70;86.60;;;;;;5356826;26;20007;-68
2024/04/10 05:27:57;;;;;;;6.03;2.38;;;14.70;86.50;;;;;;5380337;26;20011;-67
2024/04/10 05:30:44;;;;;;;3.08;1.80;;;14.70;86.50;;;;;;5393665;26;19995;-69
2024/04/10 05:33:30;;;;;;;2.10;1.23;;;14.70;86.60;;;;;;5416435;26;20018;-68
2024/04/10 05:36:16;;;;;;;4.18;1.80;;;14.70;86.40;;;;;;5409341;26;19995;-68
2024/04/10 05:39:02;;;;;;;3.35;1.73;;;14.80;86.60;;;;;;5375448;26;20020;-66
2024/04/10 05:41:48;;;;;;;3.95;1.42;;;14.80;86.60;;;;;;5410884;26;20019;-68
2024/04/10 05:44:34;;;;;;;3.35;1.35;;;14.80;86.70;;;;;;5390073;26;20452;-72
2024/04/10 05:47:20;;;;;;;4.15;1.65;;;14.80;86.40;;;;;;5413605;26;20015;-74
2024/04/10 05:50:08;;;;;;;2.75;1.52;;;14.80;86.40;;;;;;5412283;26;20011;-69
2024/04/10 05:52:54;;;;;;;8.70;2.22;;;14.90;86.30;;;;;;5407832;26;20046;-71
2024/04/10 05:55:40;;;;;;;2.08;1.40;;;14.90;86.30;;;;;;5401582;26;20007;-68
2024/04/10 05:58:25;;;;;;;4.47;1.90;;;14.90;86.10;;;;;;5393707;26;20006;-69
2024/04/10 06:01:11;;;;;;;3.05;1.90;;;15.00;86.00;;;;;;5404151;26;20323;-70
2024/04/10 06:03:57;;;;;;;4.90;1.85;;;15.00;85.80;;;;;;5412086;26;20374;-69
2024/04/10 06:06:43;;;;;;;5.57;2.00;;;15.00;85.70;;;;;;5396071;26;19992;-69
2024/04/10 06:09:29;;;;;;;4.95;2.17;;;15.00;85.70;;;;;;5385790;26;19991;-69
2024/04/10 06:12:15;;;;;;;6.22;1.98;;;15.10;85.70;;;;;;5412194;26;19995;-70
2024/04/10 06:15:01;;;;;;;5.95;2.00;;;15.10;85.40;;;;;;5396897;26;19995;-69
2024/04/10 06:17:47;;;;;;;4.07;2.58;;;15.20;85.40;;;;;;5396590;26;20006;-68
2024/04/10 06:20:33;;;;;;;3.15;1.95;;;15.20;85.10;;;;;;5401279;26;20003;-69
2024/04/10 06:23:19;;;;;;;5.35;2.40;;;15.20;85.30;;;;;;5401708;26;20067;-69
2024/04/10 06:26:05;;;;;;;7.10;2.90;;;15.10;84.70;;;;;;5410805;26;20350;-69
2024/04/10 06:28:51;;;;;;;3.30;2.10;;;15.10;84.70;;;;;;5412310;26;20011;-69
2024/04/10 06:31:37;;;;;;;7.82;2.97;;;15.10;84.70;;;;;;5401957;26;20023;-67
2024/04/10 06:34:23;;;;;;;4.85;2.75;;;15.10;84.40;;;;;;5386059;26;20008;-66
2024/04/10 06:37:09;;;;;;;7.22;2.47;;;15.10;84.40;;;;;;5411411;26;20072;-67
2024/04/10 06:39:54;;;;;;;4.75;2.00;;;15.00;84.20;;;;;;5410590;26;20348;-67
2024/04/10 06:42:40;;;;;;;5.78;2.83;;;15.00;84.10;;;;;;5412192;26;20076;-66
2024/04/10 06:45:26;;;;;;;6.38;2.40;;;14.90;84.30;;;;;;5399663;26;20011;-68
2024/04/10 06:48:12;;;;;;;7.30;2.30;;;14.90;84.70;;;;;;5371912;26;20015;-67
2024/04/10 06:51:03;;;;;;;5.80;2.58;;;14.90;84.50;;;;;;5380388;26;20045;-64
2024/04/10 06:53:49;;;;;;;5.13;2.55;;;14.90;84.90;;;;;;5406707;26;20018;-67
2024/04/10 06:56:35;;;;;;;5.45;3.17;;;14.90;84.60;;;;;;5403009;26;20003;-65
2024/04/10 06:59:21;;;;;;;5.65;2.67;;;14.90;84.50;;;;;;5412927;26;20316;-67
2024/04/10 07:02:07;;;;;;;7.35;3.03;;;14.90;84.60;;;;;;5408377;26;20351;-68
2024/04/10 07:04:53;;;;;;;9.07;2.67;;;14.90;84.80;;;;;;5406910;26;20076;-69
2024/04/10 07:07:39;;;;;;;9.25;2.97;;;14.90;84.50;;;;;;5401462;26;20008;-67
2024/04/10 07:10:26;;;;;;;7.65;2.47;;;14.90;84.50;;;;;;5413050;26;20384;-67
2024/04/10 07:13:11;;;;;;;6.32;3.20;;;14.90;84.60;;;;;;5408945;26;20027;-67
2024/04/10 07:16:02;;;;;;;6.60;2.20;;;14.90;84.50;;;;;;5401728;26;20015;-67
2024/04/10 07:18:48;;;;;;;3.92;2.20;;;14.90;84.40;;;;;;5407975;26;20344;-67
2024/04/10 07:21:34;;;;;;;6.07;2.72;;;15.00;84.60;;;;;;5403996;26;20440;-67
2024/04/10 07:24:20;;;;;;;8.48;2.97;;;15.10;84.60;;;;;;5408558;26;19999;-66
2024/04/10 07:27:06;;;;;;;7.53;2.47;;;15.10;84.50;;;;;;5401387;26;20076;-67
2024/04/10 07:29:52;;;;;;;6.45;2.33;;;15.10;84.50;;;;;;5397288;26;20032;-66
2024/04/10 07:32:38;;;;;;;6.10;2.60;;;15.20;84.30;;;;;;5404688;26;19991;-66
2024/04/10 07:35:28;;;;;;;5.75;2.47;;;15.30;84.20;;;;;;5399574;26;20031;-66
2024/04/10 07:38:15;;;;;;;4.28;2.47;;;15.40;83.90;;;;;;5409875;26;19996;-66
2024/04/10 07:41:01;;;;;;;2.70;1.80;;;15.50;84.30;;;;;;5411943;26;20000;-66
2024/04/10 07:43:49;;;;;;;4.97;2.30;;;15.60;83.60;;;;;;5415484;26;20401;-66
2024/04/10 07:46:35;;;;;;;6.65;2.35;;;15.60;83.30;;;;;;5406650;26;20485;-66
2024/04/10 07:49:21;;;;;;;5.80;2.28;;;15.60;83.10;;;;;;5408541;26;20000;-70
2024/04/10 07:52:07;;;;;;;9.77;2.42;;;15.70;83.30;;;;;;5413551;26;19995;-71
2024/04/10 07:54:53;;;;;;;6.38;2.97;;;15.70;83.30;;;;;;5399756;26;20011;-70
2024/04/10 07:57:40;;;;;;;7.00;2.65;;;15.80;83.10;;;;;;5401440;26;20018;-71
2024/04/10 08:00:27;;;;;;;3.60;2.08;;;15.80;83.70;;;;;;5408731;26;20098;-71
2024/04/10 08:03:13;;;;;;;11.20;3.47;;;15.90;84.30;;;;;;5411084;26;20000;-71
2024/04/10 08:06:03;;;;;;;8.57;2.45;;;16.00;83.70;;;;;;5391293;26;20068;-71
2024/04/10 08:08:49;;;;;;;8.60;2.30;;;16.00;83.50;;;;;;5411207;26;20000;-70
2024/04/10 08:11:35;;;;;;;6.00;2.40;;;16.10;83.40;;;;;;5410566;26;20004;-70
2024/04/10 08:14:21;;;;;;;4.82;2.72;;;16.10;83.00;;;;;;5400171;26;20008;-71
2024/04/10 08:17:07;;;;;;;3.53;2.30;;;16.10;82.20;;;;;;5405553;26;19999;-71
2024/04/10 08:19:53;;;;;;;4.47;2.65;;;16.10;82.20;;;;;;5410978;26;20512;-70
2024/04/10 08:22:39;;;;;;;7.28;2.60;;;16.10;81.80;;;;;;5401135;26;19995;-71
2024/04/10 08:25:25;;;;;;;10.90;2.97;;;16.20;82.20;;;;;;5415715;26;20564;-69
2024/04/10 08:28:14;;;;;;;8.48;2.25;;;16.30;82.60;;;;;;5403906;26;20004;-69
2024/04/10 08:31:00;;;;;;;5.20;2.67;;;16.40;82.10;;;;;;5414985;26;20068;-69
2024/04/10 08:33:47;;;;;;;5.35;2.30;;;16.50;82.00;;;;;;5378643;26;20077;-69
2024/04/10 08:36:33;;;;;;;6.72;2.33;;;16.60;82.10;;;;;;5379875;26;20029;-69
2024/04/10 08:39:19;;;;;;;9.80;2.63;;;16.70;81.90;;;;;;5371030;26;20008;-69
2024/04/10 08:42:07;;;;;;;6.10;2.53;;;16.70;81.40;;;;;;5379081;26;19997;-69
2024/04/10 08:44:53;;;;;;;4.65;2.60;;;16.80;80.90;;;;;;5379285;26;20079;-69
2024/04/10 08:47:40;;;;;;;5.20;2.92;;;16.80;80.50;;;;;;5378171;26;20000;-69
2024/04/10 08:50:29;;;;;;;4.15;2.28;;;16.90;80.50;;;;;;5374025;26;20000;-69
2024/04/10 08:53:17;;;;;;;4.78;2.53;;;16.80;79.60;;;;;;5376631;26;20375;-69
2024/04/10 08:56:03;;;;;;;5.10;2.20;;;16.80;79.90;;;;;;5365863;26;20033;-69
2024/04/10 08:58:49;;;;;;;5.30;2.25;;;16.80;80.10;;;;;;5372808;26;20391;-69
2024/04/10 09:01:37;;;;;;;7.45;2.35;;;16.80;79.70;;;;;;5370409;26;20019;-69
2024/04/10 09:04:24;;;;;;;3.88;2.00;;;16.90;79.20;;;;;;5363425;26;20423;-69
2024/04/10 09:07:10;;;;;;;5.05;2.03;;;16.90;78.70;;;;;;5360752;26;20015;-69
2024/04/10 09:10:10;;;;;;;3.58;1.92;;;17.00;78.30;;;;;;5369772;26;20074;-69
2024/04/10 09:13:08;;;;;;;5.00;2.13;;;16.90;78.50;;;;;;5368010;26;20015;-69
2024/04/10 09:15:58;;;;;;;3.67;2.00;;;16.90;78.30;;;;;;5378704;26;19992;-69
2024/04/10 09:18:44;;;;;;;4.90;1.80;;;17.00;78.20;;;;;;5376066;26;20340;-69
2024/04/10 09:21:29;;;;;;;4.63;1.75;;;17.10;78.90;;;;;;5373818;26;20527;-69
2024/04/10 09:24:16;;;;;;;6.72;2.30;;;17.10;78.60;;;;;;5378163;26;20352;-70
2024/04/10 09:27:10;;;;;;;4.25;2.17;;;17.00;78.20;;;;;;5377307;26;20008;-69
2024/04/10 09:29:59;;;;;;;5.68;2.00;;;17.10;77.90;;;;;;5371963;26;20012;-69
2024/04/10 09:32:45;;;;;;;4.68;2.15;;;17.10;77.70;;;;;;5376124;26;20344;-69
2024/04/10 09:35:34;;;;;;;6.75;1.85;;;17.20;77.80;;;;;;5376414;26;20074;-70
2024/04/10 09:38:21;;;;;;;5.35;2.25;;;17.30;78.00;;;;;;5398539;26;20010;-70
2024/04/10 09:41:11;;;;;;;4.20;1.95;;;17.30;77.40;;;;;;5409646;26;20011;-70
2024/04/10 09:43:58;;;;;;;3.53;1.20;;;17.20;76.70;;;;;;5410059;26;20331;-69
2024/04/10 09:46:55;;;;;;;3.15;1.40;;;17.30;76.70;;;;;;5379168;26;20012;-69
2024/04/10 09:49:44;;;;;;;4.18;2.05;;;17.20;76.40;;;;;;5407570;26;20009;-70
2024/04/10 09:52:32;;;;;;;3.08;1.77;;;17.20;75.90;;;;;;5408615;26;19992;-69
2024/04/10 09:55:18;;;;;;;4.82;1.45;;;17.20;76.10;;;;;;5409744;26;20015;-69
2024/04/10 09:58:06;;;;;;;3.38;1.42;;;17.10;76.30;;;;;;5410101;26;20401;-68
2024/04/10 10:00:52;;;;;;;10.07;2.55;;;17.10;75.90;;;;;;5412759;26;20011;-68
2024/04/10 10:03:38;;;;;;;3.33;1.20;;;17.20;75.60;;;;;;5409416;26;20018;-68
2024/04/10 10:06:29;;;;;;;4.70;1.50;;;17.20;75.80;;;;;;5419575;26;19999;-68
2024/04/10 10:09:27;;;;;;;5.13;1.63;;;17.20;75.50;;;;;;5425739;26;20003;-68
2024/04/10 10:12:23;;;;;;;8.80;1.83;;;17.20;75.80;;;;;;5404635;26;20105;-68
2024/04/10 10:15:10;;;;;;;6.30;1.50;;;17.20;75.60;;;;;;5405776;26;20347;-70
2024/04/10 10:17:56;;;;;;;3.45;1.23;;;17.30;75.80;;;;;;5406885;26;20432;-70
2024/04/10 10:20:42;;;;;;;4.47;1.50;;;17.40;75.70;;;;;;5405081;26;20003;-71
2024/04/10 10:23:28;;;;;;;3.55;1.40;;;17.40;75.60;;;;;;5409114;26;20010;-71
2024/04/10 10:26:15;;;;;;;2.65;1.30;;;17.30;74.60;;;;;;5433550;26;20015;-72
2024/04/10 10:30:39;;;;;;;2.83;1.80;;;17.30;74.30;;;;;;5633648;25;20334;-74
2024/04/10 10:33:25;;;;;;;7.57;2.15;;;17.30;74.30;;;;;;5612233;25;20321;-74
2024/04/10 10:36:11;;;;;;;2.35;1.38;;;17.30;74.60;;;;;;5609521;25;20004;-74
2024/04/10 10:39:15;;;;;;;6.53;1.35;;;17.40;74.60;;;;;;5563126;25;20007;-74
2024/04/10 10:42:04;;;;;;;3.03;1.33;;;17.40;74.40;;;;;;5611343;25;19998;-74
2024/04/10 10:44:50;;;;;;;4.97;1.88;;;17.40;74.60;;;;;;5610931;25;19996;-74
2024/04/10 10:47:39;;;;;;;5.97;1.60;;;17.50;74.40;;;;;;5610753;25;20291;-76
2024/04/10 10:50:25;;;;;;;2.70;1.30;;;17.50;74.40;;;;;;5610909;25;20456;-75
2024/04/10 10:53:12;;;;;;;4.00;1.35;;;17.40;74.40;;;;;;5587106;25;19999;-74
2024/04/10 10:55:58;;;;;;;6.72;1.38;;;17.40;74.50;;;;;;5606680;25;19988;-72
2024/04/10 10:58:44;;;;;;;4.00;1.55;;;17.40;75.00;;;;;;5576931;25;20574;-72
2024/04/10 11:01:29;;;;;;;2.88;1.25;;;17.50;74.90;;;;;;5577910;25;20000;-72
2024/04/10 11:04:16;;;;;;;2.55;1.23;;;17.60;74.80;;;;;;5575459;25;20007;-72
2024/04/10 11:07:14;;;;;;;4.22;1.30;;;17.60;74.40;;;;;;5575965;25;19996;-72
2024/04/10 11:10:10;;;;;;;2.50;1.17;;;17.60;73.90;;;;;;5575964;25;20007;-73
2024/04/10 11:13:06;;;;;;;1.85;1.40;;;17.60;73.80;;;;;;5545748;25;19997;-73
2024/04/10 11:15:57;;;;;;;2.53;1.00;;;17.60;73.60;;;;;;5577412;25;19992;-72
2024/04/10 11:18:42;;;;;;;1.95;1.05;;;17.60;73.30;;;;;;5578226;25;19996;-72
2024/04/10 11:21:29;;;;;;;1.95;1.17;;;17.60;73.40;;;;;;5574122;25;20055;-70
2024/04/10 11:24:15;;;;;;;3.40;1.25;;;17.70;73.40;;;;;;5569055;25;20007;-70
2024/04/10 11:27:01;;;;;;;2.08;1.17;;;17.70;73.50;;;;;;5573269;25;19993;-71
2024/04/10 11:29:48;;;;;;;1.63;0.82;;;17.70;73.10;;;;;;5569201;25;19993;-73
2024/04/10 11:32:33;;;;;;;2.42;1.25;;;17.70;72.90;;;;;;5576335;25;20350;-72
2024/04/10 11:35:20;;;;;;;3.45;1.10;;;17.70;72.70;;;;;;5570108;25;20472;-70
2024/04/10 11:38:06;;;;;;;1.98;1.08;;;17.70;72.00;;;;;;5556530;25;19997;-74
2024/04/10 11:40:52;;;;;;;1.27;0.82;;;17.60;72.20;;;;;;5562044;25;19993;-75
2024/04/10 11:43:38;;;;;;;1.35;0.90;;;17.70;72.10;;;;;;5559038;25;19993;-71
2024/04/10 11:46:24;;;;;;;3.33;1.10;;;17.70;72.10;;;;;;5525894;25;20045;-71
2024/04/10 11:49:10;;;;;;;1.20;0.95;;;17.70;71.80;;;;;;5524441;25;20029;-69
2024/04/10 11:51:56;;;;;;;1.83;1.10;;;17.60;71.60;;;;;;5548550;25;20007;-69
2024/04/10 11:54:42;;;;;;;1.20;0.82;;;17.60;70.90;;;;;;5530719;25;20004;-70
2024/04/10 11:57:28;;;;;;;1.17;1.00;;;17.50;70.80;;;;;;5555763;25;20036;-72
2024/04/10 12:00:14;;;;;;;3.08;0.98;;;17.40;70.70;;;;;;5561174;25;19996;-73
2024/04/10 12:03:00;;;;;;;1.13;1.00;;;17.40;70.50;;;;;;5554753;25;20011;-72
2024/04/10 12:05:46;;;;;;;3.47;0.88;;;17.30;70.90;;;;;;5555221;25;20072;-72
2024/04/10 12:08:36;;;;;;;1.25;0.88;;;17.20;71.00;;;;;;5538880;25;20000;-73
2024/04/10 12:11:22;;;;;;;1.83;1.08;;;17.20;71.10;;;;;;5557223;25;19996;-72
2024/04/10 12:14:07;;;;;;;2.75;1.00;;;17.20;71.10;;;;;;5559993;25;20064;-72
2024/04/10 12:16:53;;;;;;;1.77;1.00;;;17.20;71.10;;;;;;5544398;25;20000;-72
2024/04/10 12:19:39;;;;;;;1.88;1.00;;;17.20;70.90;;;;;;5557872;25;19997;-73
2024/04/10 12:22:25;;;;;;;1.92;1.15;;;17.20;71.30;;;;;;5556922;25;20015;-74
2024/04/10 12:25:11;;;;;;;4.43;1.52;;;17.30;70.90;;;;;;5547394;25;19993;-73
2024/04/10 12:27:57;;;;;;;2.88;1.13;;;17.20;71.30;;;;;;5540835;25;19993;-73
2024/04/10 12:30:43;;;;;;;1.85;0.93;;;17.30;71.20;;;;;;5548867;25;20016;-74
2024/04/10 12:33:30;;;;;;;2.45;1.30;;;17.40;71.00;;;;;;5559879;25;19997;-73
2024/04/10 12:39:21;;;;;;;4.28;1.25;;;17.50;70.60;;;;;;5557898;25;20008;-73
2024/04/10 12:42:07;;;;;;;2.33;0.90;;;17.50;70.50;;;;;;5523761;25;20065;-73
2024/04/10 12:44:53;;;;;;;0.98;0.70;;;17.40;70.00;;;;;;5548517;25;19997;-73
2024/04/10 12:47:39;;;;;;;1.95;1.10;;;17.40;70.30;;;;;;5545918;25;20487;-72
2024/04/10 12:50:26;;;;;;;5.07;1.25;;;17.40;70.40;;;;;;5528254;25;19993;-71
2024/04/10 12:53:12;;;;;;;1.40;0.90;;;17.50;70.80;;;;;;5550006;25;19997;-72
2024/04/10 12:55:58;;;;;;;2.28;1.00;;;17.60;70.40;;;;;;5557480;25;19996;-72
2024/04/10 12:58:44;;;;;;;5.38;1.13;;;17.60;70.20;;;;;;5549868;25;19992;-72
2024/04/10 13:01:31;;;;;;;3.35;1.20;;;17.60;69.80;;;;;;5571099;25;20329;-72
2024/04/10 13:04:17;;;;;;;2.15;1.00;;;17.60;69.80;;;;;;5555673;25;20013;-72
2024/04/10 13:07:02;;;;;;;2.70;1.30;;;17.50;69.70;;;;;;5552866;25;19997;-71
2024/04/10 13:09:52;;;;;;;3.13;1.52;;;17.50;69.40;;;;;;5556353;25;20004;-72
2024/04/10 13:12:38;;;;;;;1.50;0.90;;;17.30;69.50;;;;;;5562864;25;20475;-72
2024/04/10 13:15:24;;;;;;;2.40;1.10;;;17.30;70.10;;;;;;5524242;25;20020;-72
2024/04/10 13:18:10;;;;;;;3.60;1.27;;;17.30;70.10;;;;;;5554639;25;19996;-72
2024/04/10 13:20:58;;;;;;;0.93;0.75;;;17.30;70.40;;;;;;5556592;25;20001;-72
2024/04/10 13:23:46;;;;;;;1.77;1.10;;;17.30;70.90;;;;;;5536847;25;20059;-71
2024/04/10 13:26:33;;;;;;;2.47;1.17;;;17.30;70.80;;;;;;5553301;25;19989;-71
2024/04/10 13:29:19;;;;;;;1.90;0.75;;;17.50;70.90;;;;;;5549602;25;19988;-71
2024/04/10 13:32:05;;;;;;;3.58;1.20;;;17.60;70.80;;;;;;5541077;25;19989;-71
2024/04/10 13:34:51;;;;;;;2.03;0.90;;;17.70;70.60;;;;;;5528501;25;20372;-71
2024/04/10 13:37:37;;;;;;;2.15;1.02;;;17.80;70.40;;;;;;5525815;25;20001;-72
2024/04/10 13:40:23;;;;;;;3.92;1.90;;;17.80;70.40;;;;;;5557088;25;19997;-72
2024/04/10 13:43:09;;;;;;;2.63;1.00;;;17.80;70.20;;;;;;5526170;25;19997;-72
2024/04/10 13:45:55;;;;;;;3.30;0.82;;;17.80;70.30;;;;;;5521898;25;20569;-72
2024/04/10 13:48:43;;;;;;;6.07;1.52;;;17.80;70.60;;;;;;5525892;25;19997;-71
2024/04/10 13:51:29;;;;;;;3.50;1.20;;;17.80;70.40;;;;;;5531421;25;20445;-72
2024/04/10 13:54:16;;;;;;;2.05;1.25;;;17.80;70.40;;;;;;5557553;25;20007;-68
2024/04/10 13:57:02;;;;;;;1.65;1.25;;;17.80;70.30;;;;;;5554629;25;20081;-71
2024/04/10 13:59:47;;;;;;;2.58;1.50;;;17.80;70.30;;;;;;5551725;25;20317;-72
2024/04/10 14:02:33;;;;;;;2.50;1.20;;;17.80;70.10;;;;;;5553627;25;19998;-71
2024/04/10 14:05:19;;;;;;;2.67;1.10;;;17.80;70.30;;;;;;5546143;25;20030;-71
2024/04/10 14:08:05;;;;;;;2.17;1.20;;;17.90;70.10;;;;;;5549759;25;20011;-72
2024/04/10 14:10:51;;;;;;;1.65;1.20;;;17.90;69.90;;;;;;5525721;25;20360;-71
2024/04/10 14:13:40;;;;;;;2.60;1.00;;;17.90;70.20;;;;;;5529141;25;20017;-71
2024/04/10 14:16:26;;;;;;;2.65;1.20;;;17.90;69.90;;;;;;5548957;25;19989;-72
2024/04/10 14:19:12;;;;;;;3.35;2.00;;;17.90;69.90;;;;;;5554091;25;20012;-72
2024/04/10 14:21:58;;;;;;;1.45;1.02;;;17.90;70.10;;;;;;5549082;25;20437;-73
2024/04/10 14:24:45;;;;;;;4.47;1.20;;;17.90;70.30;;;;;;5553439;25;19996;-72
2024/04/10 14:27:31;;;;;;;1.05;0.70;;;17.90;70.20;;;;;;5545463;25;20012;-78
2024/04/10 14:30:17;;;;;;;3.88;1.20;;;18.00;70.10;;;;;;5549413;25;20016;-68